createdAt,value
2022-12-22T00:00:42.612Z,17.45
2022-12-22T00:03:09.031Z,17.43
2022-12-22T00:05:35.542Z,17.39
2022-12-22T00:08:01.980Z,17.38
2022-12-22T00:10:28.261Z,17.33
2022-12-22T00:12:54.569Z,17.32
2022-12-22T00:15:20.943Z,17.28
2022-12-22T00:17:47.289Z,17.29
2022-12-22T00:20:18.289Z,17.25
2022-12-22T00:22:45.215Z,17.24
2022-12-22T00:25:15.171Z,17.23
2022-12-22T00:27:45.520Z,17.21
2022-12-22T00:30:12.323Z,17.19
2022-12-22T00:32:38.591Z,17.17
2022-12-22T00:35:04.834Z,17.16
2022-12-22T00:37:31.183Z,17.13
2022-12-22T00:39:57.497Z,17.12
2022-12-22T00:42:23.891Z,17.10
2022-12-22T00:44:50.143Z,17.09
2022-12-22T00:47:16.620Z,17.07
2022-12-22T00:49:42.926Z,17.05
2022-12-22T00:52:09.181Z,17.04
2022-12-22T00:54:35.476Z,17.02
2022-12-22T00:57:01.911Z,17.01
2022-12-22T00:59:28.150Z,17.00
2022-12-22T01:01:54.525Z,16.99
2022-12-22T01:04:20.824Z,16.97
2022-12-22T01:06:47.050Z,16.96
2022-12-22T01:09:13.382Z,16.94
2022-12-22T01:11:39.647Z,16.91
2022-12-22T01:14:06.049Z,16.90
2022-12-22T01:16:32.396Z,16.91
2022-12-22T01:18:58.787Z,16.89
2022-12-22T01:21:25.152Z,16.88
2022-12-22T01:23:51.426Z,16.86
2022-12-22T01:26:17.650Z,16.85
2022-12-22T01:28:43.952Z,16.85
2022-12-22T01:31:10.437Z,16.82
2022-12-22T01:33:36.793Z,16.81
2022-12-22T01:36:03.051Z,16.80
2022-12-22T01:38:29.307Z,16.79
2022-12-22T01:40:55.734Z,16.77
2022-12-22T01:43:22.056Z,16.77
2022-12-22T01:45:48.514Z,16.76
2022-12-22T01:48:14.863Z,16.75
2022-12-22T01:50:41.234Z,16.73
2022-12-22T01:53:07.565Z,16.71
2022-12-22T01:55:33.831Z,16.69
2022-12-22T01:58:00.099Z,16.68
2022-12-22T02:00:27.508Z,16.68
2022-12-22T02:02:53.930Z,16.65
2022-12-22T02:05:20.333Z,16.64
2022-12-22T02:07:46.603Z,16.64
2022-12-22T02:10:12.907Z,16.62
2022-12-22T02:12:39.188Z,16.60
2022-12-22T02:15:05.812Z,16.60
2022-12-22T02:17:32.055Z,16.59
2022-12-22T02:19:58.281Z,16.58
2022-12-22T02:22:24.571Z,16.58
2022-12-22T02:24:50.841Z,16.58
2022-12-22T02:27:17.318Z,16.58
2022-12-22T02:29:43.607Z,16.58
2022-12-22T02:32:09.883Z,16.58
2022-12-22T02:34:36.135Z,16.58
2022-12-22T02:37:02.360Z,16.58
2022-12-22T02:39:28.729Z,16.56
2022-12-22T02:41:54.996Z,16.55
2022-12-22T02:44:21.259Z,16.55
2022-12-22T02:46:47.555Z,16.56
2022-12-22T02:49:13.901Z,16.56
2022-12-22T02:51:40.199Z,16.54
2022-12-22T02:54:06.449Z,16.53
2022-12-22T02:56:32.715Z,16.51
2022-12-22T02:58:59.148Z,16.50
2022-12-22T03:01:25.688Z,16.50
2022-12-22T03:03:52.180Z,16.47
2022-12-22T03:06:18.525Z,16.46
2022-12-22T03:08:44.800Z,16.46
2022-12-22T03:11:11.192Z,16.44
2022-12-22T03:13:37.503Z,16.43
2022-12-22T03:16:03.823Z,16.42
2022-12-22T03:18:30.151Z,16.43
2022-12-22T03:20:56.466Z,16.41
2022-12-22T03:23:22.846Z,16.39
2022-12-22T03:25:49.107Z,16.40
2022-12-22T03:28:15.412Z,16.39
2022-12-22T03:30:41.793Z,16.37
2022-12-22T03:33:08.059Z,16.37
2022-12-22T03:35:34.355Z,16.36
2022-12-22T03:38:00.635Z,16.35
2022-12-22T03:40:26.884Z,16.34
2022-12-22T03:42:53.087Z,16.34
2022-12-22T03:45:19.410Z,16.34
2022-12-22T03:47:45.713Z,16.34
2022-12-22T03:50:12.068Z,16.33
2022-12-22T03:52:38.334Z,16.32
2022-12-22T03:55:04.645Z,16.31
2022-12-22T03:57:30.909Z,16.29
2022-12-22T03:59:57.164Z,16.30
2022-12-22T04:02:23.641Z,16.29
2022-12-22T04:04:50.022Z,16.28
2022-12-22T04:07:16.315Z,16.26
2022-12-22T04:09:42.649Z,16.25
2022-12-22T04:12:08.898Z,16.25
2022-12-22T04:14:35.192Z,16.24
2022-12-22T04:17:01.574Z,16.23
2022-12-22T04:19:28.316Z,16.23
2022-12-22T04:21:54.594Z,16.23
2022-12-22T04:24:20.895Z,16.23
2022-12-22T04:26:47.171Z,16.22
2022-12-22T04:29:13.414Z,16.21
2022-12-22T04:31:39.704Z,16.21
2022-12-22T04:34:05.990Z,16.20
2022-12-22T04:36:32.228Z,16.19
2022-12-22T04:38:58.508Z,16.19
2022-12-22T04:41:24.799Z,16.17
2022-12-22T04:43:51.094Z,16.17
2022-12-22T04:46:17.459Z,16.17
2022-12-22T04:48:43.845Z,16.17
2022-12-22T04:51:10.082Z,16.16
2022-12-22T04:53:36.355Z,16.15
2022-12-22T04:56:02.591Z,16.15
2022-12-22T04:58:28.866Z,16.14
2022-12-22T05:00:55.151Z,16.15
2022-12-22T05:03:21.470Z,16.14
2022-12-22T05:05:47.822Z,16.13
2022-12-22T05:08:14.174Z,16.12
2022-12-22T05:10:40.442Z,16.11
2022-12-22T05:13:06.697Z,16.11
2022-12-22T05:15:32.972Z,16.10
2022-12-22T05:17:59.212Z,16.09
2022-12-22T05:20:25.624Z,16.08
2022-12-22T05:22:52.046Z,16.08
2022-12-22T05:25:18.371Z,16.05
2022-12-22T05:27:44.711Z,16.06
2022-12-22T05:30:11.095Z,16.05
2022-12-22T05:32:37.326Z,16.05
2022-12-22T05:35:03.564Z,16.03
2022-12-22T05:37:29.803Z,16.03
2022-12-22T05:39:56.061Z,16.02
2022-12-22T05:42:22.308Z,16.02
2022-12-22T05:44:48.567Z,16.01
2022-12-22T05:47:14.828Z,16.01
2022-12-22T05:49:41.065Z,15.99
2022-12-22T05:52:07.297Z,15.98
2022-12-22T05:54:33.546Z,15.98
2022-12-22T05:57:00.212Z,15.97
2022-12-22T05:59:26.472Z,15.95
2022-12-22T06:01:52.842Z,15.94
2022-12-22T06:04:19.148Z,15.93
2022-12-22T06:06:45.589Z,15.93
2022-12-22T06:09:12.613Z,15.93
2022-12-22T06:11:38.881Z,15.94
2022-12-22T06:14:05.178Z,15.94
2022-12-22T06:16:31.517Z,15.94
2022-12-22T06:18:57.906Z,15.94
2022-12-22T06:21:24.207Z,15.93
2022-12-22T06:23:50.493Z,15.93
2022-12-22T06:26:16.742Z,15.93
2022-12-22T06:28:43.007Z,15.93
2022-12-22T06:31:09.327Z,15.92
2022-12-22T06:33:35.631Z,15.92
2022-12-22T06:36:01.874Z,15.93
2022-12-22T06:38:28.304Z,15.92
2022-12-22T06:40:55.028Z,15.92
2022-12-22T06:43:21.304Z,15.91
2022-12-22T06:45:47.559Z,15.92
2022-12-22T06:48:13.837Z,16.05
2022-12-22T06:50:40.142Z,16.29
2022-12-22T06:53:06.445Z,16.50
2022-12-22T06:55:32.773Z,16.71
2022-12-22T06:57:59.033Z,16.89
2022-12-22T07:00:25.322Z,17.02
2022-12-22T07:02:51.659Z,17.14
2022-12-22T07:05:18.059Z,17.25
2022-12-22T07:07:44.287Z,17.34
2022-12-22T07:10:10.503Z,17.42
2022-12-22T07:12:36.754Z,17.49
2022-12-22T07:15:03.041Z,17.56
2022-12-22T07:17:29.342Z,17.64
2022-12-22T07:19:55.655Z,17.70
2022-12-22T07:22:29.337Z,17.78
2022-12-22T07:24:56.407Z,17.84
2022-12-22T07:27:22.641Z,17.89
2022-12-22T07:29:48.993Z,17.94
2022-12-22T07:32:15.249Z,17.99
2022-12-22T07:34:41.509Z,18.03
2022-12-22T07:37:08.214Z,18.09
2022-12-22T07:39:34.485Z,18.12
2022-12-22T07:42:00.838Z,18.15
2022-12-22T07:44:27.104Z,18.18
2022-12-22T07:46:53.406Z,18.21
2022-12-22T07:49:19.742Z,18.24
2022-12-22T07:51:45.976Z,18.27
2022-12-22T07:54:12.338Z,18.30
2022-12-22T07:56:38.625Z,18.32
2022-12-22T07:59:04.923Z,18.34
2022-12-22T08:01:31.390Z,18.35
2022-12-22T08:03:57.730Z,18.37
2022-12-22T08:06:24.018Z,18.40
2022-12-22T08:08:50.281Z,18.43
2022-12-22T08:11:16.542Z,18.45
2022-12-22T08:13:42.799Z,18.46
2022-12-22T08:16:09.215Z,18.49
2022-12-22T08:18:38.663Z,18.52
2022-12-22T08:21:04.931Z,18.52
2022-12-22T08:23:31.293Z,18.55
2022-12-22T08:25:57.527Z,18.57
2022-12-22T08:28:23.754Z,18.58
2022-12-22T08:30:49.999Z,18.60
2022-12-22T08:33:16.472Z,18.62
2022-12-22T08:35:42.777Z,18.63
2022-12-22T08:38:09.071Z,18.66
2022-12-22T08:40:35.323Z,18.68
2022-12-22T08:43:01.616Z,18.71
2022-12-22T08:45:27.906Z,18.74
2022-12-22T08:47:54.299Z,18.77
2022-12-22T08:50:20.630Z,18.79
2022-12-22T08:52:46.883Z,18.82
2022-12-22T08:55:13.135Z,18.86
2022-12-22T08:57:39.391Z,18.87
2022-12-22T09:00:05.730Z,18.87
2022-12-22T09:02:32.230Z,18.89
2022-12-22T09:04:58.573Z,18.91
2022-12-22T09:07:24.791Z,18.93
2022-12-22T09:09:51.038Z,18.94
2022-12-22T09:12:17.376Z,18.95
2022-12-22T09:14:43.655Z,18.96
2022-12-22T09:17:09.895Z,18.98
2022-12-22T09:19:36.290Z,18.99
2022-12-22T09:22:02.540Z,19.00
2022-12-22T09:24:28.847Z,19.02
2022-12-22T09:26:55.101Z,19.03
2022-12-22T09:29:21.349Z,19.04
2022-12-22T09:31:47.732Z,19.05
2022-12-22T09:34:18.031Z,19.04
2022-12-22T09:36:44.591Z,19.03
2022-12-22T09:39:10.882Z,19.03
2022-12-22T09:41:37.386Z,19.06
2022-12-22T09:44:03.685Z,19.08
2022-12-22T09:46:30.021Z,19.11
2022-12-22T09:48:56.346Z,19.12
2022-12-22T09:51:26.777Z,19.14
2022-12-22T09:53:53.903Z,19.15
2022-12-22T09:56:20.138Z,19.17
2022-12-22T09:58:46.418Z,19.19
2022-12-22T10:01:12.823Z,19.20
2022-12-22T10:03:39.243Z,19.21
2022-12-22T10:06:05.553Z,19.22
2022-12-22T10:08:31.878Z,19.25
2022-12-22T10:10:58.319Z,19.26
2022-12-22T10:13:24.584Z,19.27
2022-12-22T10:15:50.839Z,19.30
2022-12-22T10:18:17.087Z,19.32
2022-12-22T10:20:43.359Z,19.34
2022-12-22T10:23:09.612Z,19.35
2022-12-22T10:26:17.188Z,19.36
2022-12-22T10:28:25.419Z,19.37
2022-12-22T10:30:51.827Z,19.37
2022-12-22T10:33:18.085Z,19.38
2022-12-22T10:35:44.376Z,19.38
2022-12-22T10:38:21.042Z,19.39
2022-12-22T10:40:49.411Z,19.40
2022-12-22T10:43:15.689Z,19.41
2022-12-22T10:45:42.078Z,19.43
2022-12-22T10:48:08.371Z,19.43
2022-12-22T10:50:34.749Z,19.44
2022-12-22T10:53:00.989Z,19.44
2022-12-22T10:55:27.318Z,19.45
2022-12-22T10:57:53.553Z,19.45
2022-12-22T11:00:19.803Z,19.45
2022-12-22T11:02:46.252Z,19.46
2022-12-22T11:05:12.657Z,19.47
2022-12-22T11:07:38.904Z,19.47
2022-12-22T11:10:05.167Z,19.48
2022-12-22T11:12:31.452Z,19.49
2022-12-22T11:14:57.692Z,19.49
2022-12-22T11:17:24.029Z,19.49
2022-12-22T11:19:50.298Z,19.51
2022-12-22T11:22:16.548Z,19.50
2022-12-22T11:24:43.982Z,19.53
2022-12-22T11:27:10.287Z,19.52
2022-12-22T11:29:36.551Z,19.53
2022-12-22T11:32:02.818Z,19.54
2022-12-22T11:34:29.067Z,19.54
2022-12-22T11:36:55.446Z,19.54
2022-12-22T11:39:21.771Z,19.55
2022-12-22T11:41:48.072Z,19.58
2022-12-22T11:44:14.344Z,19.58
2022-12-22T11:46:40.645Z,19.59
2022-12-22T11:49:06.982Z,19.60
2022-12-22T11:51:33.286Z,19.61
2022-12-22T11:54:02.805Z,19.63
2022-12-22T11:56:31.719Z,19.63
2022-12-22T11:58:58.860Z,19.63
2022-12-22T12:01:26.417Z,19.66
2022-12-22T12:03:52.917Z,19.71
2022-12-22T12:06:19.179Z,19.71
2022-12-22T12:08:45.417Z,19.73
2022-12-22T12:11:11.767Z,19.76
2022-12-22T12:13:37.992Z,19.77
2022-12-22T12:16:04.316Z,19.78
2022-12-22T12:18:30.612Z,19.79
2022-12-22T12:20:56.982Z,19.79
2022-12-22T12:23:23.720Z,19.78
2022-12-22T12:25:49.961Z,19.77
2022-12-22T12:28:16.204Z,19.76
2022-12-22T12:30:42.513Z,19.75
2022-12-22T12:33:08.766Z,19.76
2022-12-22T12:35:35.024Z,19.75
2022-12-22T12:38:01.340Z,19.74
2022-12-22T12:40:27.824Z,19.75
2022-12-22T12:42:54.152Z,19.76
2022-12-22T12:45:20.410Z,19.77
2022-12-22T12:47:46.727Z,19.76
2022-12-22T12:50:13.007Z,19.76
2022-12-22T12:52:39.286Z,19.73
2022-12-22T12:55:05.556Z,19.73
2022-12-22T12:57:31.806Z,19.73
2022-12-22T12:59:58.074Z,19.72
2022-12-22T13:02:24.495Z,19.72
2022-12-22T13:04:50.910Z,19.72
2022-12-22T13:07:17.408Z,19.71
2022-12-22T13:09:51.681Z,19.70
2022-12-22T13:12:24.328Z,19.68
2022-12-22T13:14:51.139Z,19.68
2022-12-22T13:17:17.492Z,19.68
2022-12-22T13:19:43.901Z,19.68
2022-12-22T13:22:10.607Z,19.68
2022-12-22T13:24:36.832Z,19.66
2022-12-22T13:27:03.134Z,19.66
2022-12-22T13:29:29.418Z,19.66
2022-12-22T13:31:55.747Z,19.65
2022-12-22T13:34:22.099Z,19.64
2022-12-22T13:36:48.375Z,19.65
2022-12-22T13:39:14.839Z,19.65
2022-12-22T13:41:41.298Z,19.65
2022-12-22T13:44:07.667Z,19.63
2022-12-22T13:46:34.094Z,19.64
2022-12-22T13:49:00.459Z,19.63
2022-12-22T13:51:26.945Z,19.62
2022-12-22T13:54:10.332Z,19.61
2022-12-22T13:56:37.728Z,19.60
2022-12-22T13:59:04.022Z,19.59
2022-12-22T14:01:30.465Z,19.58
2022-12-22T14:04:01.755Z,19.58
2022-12-22T14:06:29.120Z,19.56
2022-12-22T14:08:55.429Z,19.56
2022-12-22T14:11:21.822Z,19.54
2022-12-22T14:13:48.119Z,19.53
2022-12-22T14:16:17.619Z,19.52
2022-12-22T14:18:43.938Z,19.54
2022-12-22T14:21:10.223Z,19.54
2022-12-22T14:23:36.512Z,19.55
2022-12-22T14:26:02.773Z,19.55
2022-12-22T14:28:29.079Z,19.57
2022-12-22T14:30:55.528Z,19.55
2022-12-22T14:33:21.813Z,19.56
2022-12-22T14:35:48.041Z,19.56
2022-12-22T14:38:14.388Z,19.56
2022-12-22T14:40:40.661Z,19.57
2022-12-22T14:43:07.015Z,19.57
2022-12-22T14:45:33.339Z,19.56
2022-12-22T14:47:59.679Z,19.56
2022-12-22T14:50:25.962Z,19.55
2022-12-22T14:52:52.243Z,19.57
2022-12-22T14:55:18.630Z,19.55
2022-12-22T14:57:44.949Z,19.54
2022-12-22T15:00:11.308Z,19.54
2022-12-22T15:02:40.043Z,19.52
2022-12-22T15:05:06.798Z,19.53
2022-12-22T15:08:04.736Z,19.51
2022-12-22T15:10:19.462Z,19.51
2022-12-22T15:12:45.703Z,19.50
2022-12-22T15:15:13.666Z,19.51
2022-12-22T15:17:39.919Z,19.52
2022-12-22T15:20:06.276Z,19.52
2022-12-22T15:22:32.518Z,19.54
2022-12-22T15:24:58.883Z,19.53
2022-12-22T15:27:25.146Z,19.54
2022-12-22T15:29:51.373Z,19.53
2022-12-22T15:32:17.609Z,19.53
2022-12-22T15:34:43.842Z,19.52
2022-12-22T15:37:10.175Z,19.52
2022-12-22T15:39:36.402Z,19.52
2022-12-22T15:42:05.675Z,19.50
2022-12-22T15:44:38.286Z,19.50
2022-12-22T15:47:08.115Z,19.50
2022-12-22T15:49:34.422Z,19.47
2022-12-22T15:52:00.724Z,19.46
2022-12-22T15:54:27.078Z,19.45
2022-12-22T15:56:53.453Z,19.45
2022-12-22T15:59:19.862Z,19.44
2022-12-22T16:01:46.177Z,19.43
2022-12-22T16:04:13.400Z,19.43
2022-12-22T16:06:39.681Z,19.41
2022-12-22T16:09:05.907Z,19.39
2022-12-22T16:11:33.306Z,19.37
2022-12-22T16:13:59.639Z,19.36
2022-12-22T16:16:26.190Z,19.36
2022-12-22T16:18:52.487Z,19.37
2022-12-22T16:21:18.772Z,19.37
2022-12-22T16:23:45.068Z,19.39
2022-12-22T16:26:11.391Z,19.39
2022-12-22T16:28:37.618Z,19.39
2022-12-22T16:31:03.923Z,19.40
2022-12-22T16:33:30.247Z,19.29
2022-12-22T16:35:56.613Z,19.42
2022-12-22T16:38:22.946Z,19.42
2022-12-22T16:40:49.269Z,19.42
2022-12-22T16:45:59.324Z,19.43
2022-12-22T16:48:25.626Z,19.44
2022-12-22T16:50:51.905Z,19.44
2022-12-22T16:53:18.190Z,19.44
2022-12-22T16:55:44.452Z,19.44
2022-12-22T16:58:13.608Z,19.42
2022-12-22T17:00:40.502Z,19.42
2022-12-22T17:03:06.897Z,19.42
2022-12-22T17:05:36.267Z,19.40
2022-12-22T17:08:05.077Z,19.39
2022-12-22T17:10:31.329Z,19.38
2022-12-22T17:12:57.621Z,19.37
2022-12-22T17:15:23.907Z,19.35
2022-12-22T17:17:50.427Z,19.34
2022-12-22T17:20:16.723Z,19.33
2022-12-22T17:22:42.991Z,19.32
2022-12-22T17:25:09.235Z,19.30
2022-12-22T17:27:35.493Z,19.28
2022-12-22T17:30:01.793Z,19.26
2022-12-22T17:32:28.067Z,19.25
2022-12-22T17:34:54.344Z,19.23
2022-12-22T17:37:20.658Z,19.22
2022-12-22T17:39:46.941Z,19.20
2022-12-22T17:42:13.236Z,19.16
2022-12-22T17:44:39.523Z,19.16
2022-12-22T17:47:05.967Z,19.14
2022-12-22T17:49:33.278Z,19.12
2022-12-22T17:51:59.562Z,19.09
2022-12-22T17:54:25.861Z,19.08
2022-12-22T17:56:52.151Z,19.07
2022-12-22T17:59:18.491Z,19.04
2022-12-22T18:01:44.945Z,19.05
2022-12-22T18:04:11.489Z,19.05
2022-12-22T18:06:37.854Z,19.04
2022-12-22T18:09:04.155Z,19.03
2022-12-22T18:11:30.517Z,19.02
2022-12-22T18:13:56.766Z,19.00
2022-12-22T18:16:23.210Z,19.00
2022-12-22T18:18:49.590Z,18.99
2022-12-22T18:21:15.938Z,18.98
2022-12-22T18:23:49.517Z,18.97
2022-12-22T18:26:16.789Z,18.98
2022-12-22T18:28:43.018Z,18.98
2022-12-22T18:31:09.307Z,18.97
2022-12-22T18:33:35.785Z,18.98
2022-12-22T18:36:01.974Z,19.00
2022-12-22T18:38:28.224Z,19.00
2022-12-22T18:40:54.510Z,19.01
2022-12-22T18:43:20.812Z,19.02
2022-12-22T18:45:47.123Z,19.03
2022-12-22T18:48:13.404Z,19.04
2022-12-22T18:50:39.804Z,19.04
2022-12-22T18:53:06.124Z,19.05
2022-12-22T18:55:32.372Z,19.04
2022-12-22T18:57:58.638Z,19.04
2022-12-22T19:00:24.887Z,19.04
2022-12-22T19:02:51.376Z,19.02
2022-12-22T19:05:17.770Z,19.02
2022-12-22T19:07:44.086Z,19.03
2022-12-22T19:10:10.383Z,19.03
2022-12-22T19:12:36.623Z,19.04
2022-12-22T19:15:02.875Z,19.05
2022-12-22T19:17:29.288Z,19.06
2022-12-22T19:19:55.556Z,19.05
2022-12-22T19:22:21.868Z,19.07
2022-12-22T19:24:48.144Z,19.07
2022-12-22T19:27:14.400Z,19.07
2022-12-22T19:29:40.646Z,19.07
2022-12-22T19:32:07.013Z,19.08
2022-12-22T19:34:33.473Z,19.09
2022-12-22T19:36:59.733Z,19.07
2022-12-22T19:39:26.017Z,19.07
2022-12-22T19:41:52.345Z,19.08
2022-12-22T19:44:18.621Z,19.08
2022-12-22T19:46:44.953Z,19.09
2022-12-22T19:49:11.243Z,19.08
2022-12-22T19:51:39.625Z,19.07
2022-12-22T19:54:05.973Z,19.06
2022-12-22T19:56:32.284Z,19.06
2022-12-22T19:58:58.560Z,19.05
2022-12-22T20:01:25.007Z,19.05
2022-12-22T20:03:51.414Z,19.04
2022-12-22T20:06:17.954Z,19.04
2022-12-22T20:08:44.300Z,19.02
2022-12-22T20:11:10.639Z,19.01
2022-12-22T20:13:36.970Z,19.02
2022-12-22T20:16:03.706Z,19.01
2022-12-22T20:18:30.032Z,19.00
2022-12-22T20:20:57.631Z,19.02
2022-12-22T20:23:24.746Z,19.02
2022-12-22T20:25:51.356Z,19.04
2022-12-22T20:28:17.721Z,19.05
2022-12-22T20:30:51.455Z,19.06
2022-12-22T20:33:18.255Z,19.08
2022-12-22T20:35:44.511Z,19.10
2022-12-22T20:38:15.402Z,19.12
2022-12-22T20:40:41.733Z,19.14
2022-12-22T20:43:08.134Z,19.16
2022-12-22T20:45:50.484Z,19.18
2022-12-22T20:48:21.998Z,19.20
2022-12-22T20:50:48.357Z,19.21
2022-12-22T20:53:17.453Z,19.23
2022-12-22T20:55:43.756Z,19.24
2022-12-22T20:58:10.019Z,19.26
2022-12-22T21:00:36.332Z,19.27
2022-12-22T21:03:02.780Z,19.27
2022-12-22T21:05:29.314Z,19.28
2022-12-22T21:07:55.664Z,19.27
2022-12-22T21:10:25.134Z,19.28
2022-12-22T21:12:51.426Z,19.26
2022-12-22T21:15:17.661Z,19.27
2022-12-22T21:17:46.226Z,19.27
2022-12-22T21:20:12.793Z,19.26
2022-12-22T21:22:39.067Z,19.26
2022-12-22T21:25:05.383Z,19.26
2022-12-22T21:27:31.728Z,19.26
2022-12-22T21:29:58.158Z,19.25
2022-12-22T21:32:24.509Z,19.24
2022-12-22T21:34:50.786Z,19.23
2022-12-22T21:37:17.251Z,19.22
2022-12-22T21:39:45.665Z,19.22
2022-12-22T21:42:11.958Z,19.22
2022-12-22T21:44:38.181Z,19.21
2022-12-22T21:47:04.527Z,19.21
2022-12-22T21:49:30.778Z,19.19
2022-12-22T21:51:57.080Z,19.20
2022-12-22T21:54:23.341Z,19.19
2022-12-22T21:56:49.652Z,19.20
2022-12-22T21:59:15.943Z,19.20
2022-12-22T22:01:42.315Z,19.18
2022-12-22T22:04:09.223Z,19.20
2022-12-22T22:06:46.104Z,19.19
2022-12-22T22:09:12.830Z,19.18
2022-12-22T22:11:39.133Z,19.18
2022-12-22T22:14:05.378Z,19.18
2022-12-22T22:16:31.676Z,19.17
2022-12-22T22:18:57.968Z,19.16
2022-12-22T22:21:24.241Z,19.17
2022-12-22T22:23:50.525Z,19.16
2022-12-22T22:26:16.875Z,19.16
2022-12-22T22:28:43.183Z,19.15
2022-12-22T22:31:09.541Z,19.14
2022-12-22T22:33:35.864Z,19.14
2022-12-22T22:36:05.909Z,19.14
2022-12-22T22:38:32.900Z,19.13
2022-12-22T22:40:59.271Z,19.13
2022-12-22T22:43:25.546Z,19.14
2022-12-22T22:45:51.835Z,19.14
2022-12-22T22:48:18.134Z,19.14
2022-12-22T22:50:44.508Z,19.14
2022-12-22T22:53:10.790Z,19.14
2022-12-22T22:55:37.133Z,19.15
2022-12-22T22:58:03.369Z,19.15
2022-12-22T23:00:29.643Z,19.15
2022-12-22T23:02:55.996Z,19.15
2022-12-22T23:05:23.125Z,19.16
2022-12-22T23:07:49.537Z,19.16
2022-12-22T23:10:15.831Z,19.15
2022-12-22T23:12:42.081Z,19.16
2022-12-22T23:15:08.334Z,19.16
2022-12-22T23:17:34.643Z,19.16
2022-12-22T23:20:00.952Z,19.16
2022-12-22T23:22:27.241Z,19.15
2022-12-22T23:24:53.476Z,19.15
2022-12-22T23:27:19.888Z,19.12
2022-12-22T23:29:46.342Z,19.00
2022-12-22T23:32:12.703Z,18.89
2022-12-22T23:34:39.134Z,18.79
2022-12-22T23:37:05.421Z,18.72
2022-12-22T23:39:31.816Z,18.62
2022-12-22T23:42:01.009Z,18.54
2022-12-22T23:44:27.281Z,18.48
2022-12-22T23:46:53.609Z,18.41
2022-12-22T23:49:19.897Z,18.35
2022-12-22T23:51:46.165Z,18.30
2022-12-22T23:54:12.498Z,18.25
2022-12-22T23:56:38.892Z,18.19
2022-12-22T23:59:05.255Z,18.15
